sensor_id;sensor_type;location;lat;lon;timestamp;P1;durP1;ratioP1;P2;durP2;ratioP2
3647;SDS011;1840;48.892;15.312;2023-08-31T00:00:34;6.73;;;5.00;;
3647;SDS011;1840;48.892;15.312;2023-08-31T00:03:04;6.20;;;4.67;;
3647;SDS011;1840;48.892;15.312;2023-08-31T00:05:56;9.30;;;4.00;;
3647;SDS011;1840;48.892;15.312;2023-08-31T00:08:26;6.20;;;4.60;;
3647;SDS011;1840;48.892;15.312;2023-08-31T00:10:57;12.00;;;5.47;;
3647;SDS011;1840;48.892;15.312;2023-08-31T00:13:26;6.73;;;4.60;;
3647;SDS011;1840;48.892;15.312;2023-08-31T00:15:56;6.70;;;4.70;;
3647;SDS011;1840;48.892;15.312;2023-08-31T00:18:25;5.17;;;4.30;;
3647;SDS011;1840;48.892;15.312;2023-08-31T00:20:53;5.87;;;4.50;;
3647;SDS011;1840;48.892;15.312;2023-08-31T00:23:21;7.63;;;3.97;;
3647;SDS011;1840;48.892;15.312;2023-08-31T00:25:50;9.03;;;5.13;;
3647;SDS011;1840;48.892;15.312;2023-08-31T00:28:20;6.30;;;4.40;;
3647;SDS011;1840;48.892;15.312;2023-08-31T00:30:48;12.63;;;5.30;;
3647;SDS011;1840;48.892;15.312;2023-08-31T00:33:16;5.80;;;4.63;;
3647;SDS011;1840;48.892;15.312;2023-08-31T00:35:44;9.50;;;5.60;;
3647;SDS011;1840;48.892;15.312;2023-08-31T00:38:13;6.93;;;4.80;;
3647;SDS011;1840;48.892;15.312;2023-08-31T00:40:41;5.53;;;4.30;;
3647;SDS011;1840;48.892;15.312;2023-08-31T00:43:16;6.80;;;4.50;;
3647;SDS011;1840;48.892;15.312;2023-08-31T00:45:44;8.00;;;4.70;;
3647;SDS011;1840;48.892;15.312;2023-08-31T00:48:14;5.63;;;4.63;;
3647;SDS011;1840;48.892;15.312;2023-08-31T00:50:43;6.63;;;5.00;;
3647;SDS011;1840;48.892;15.312;2023-08-31T00:53:12;5.43;;;4.60;;
3647;SDS011;1840;48.892;15.312;2023-08-31T00:55:41;7.53;;;4.80;;
3647;SDS011;1840;48.892;15.312;2023-08-31T00:58:11;6.53;;;4.43;;
3647;SDS011;1840;48.892;15.312;2023-08-31T01:00:43;9.80;;;5.50;;
3647;SDS011;1840;48.892;15.312;2023-08-31T01:03:18;8.73;;;4.97;;
3647;SDS011;1840;48.892;15.312;2023-08-31T01:05:55;7.67;;;5.30;;
3647;SDS011;1840;48.892;15.312;2023-08-31T01:08:33;6.57;;;4.77;;
3647;SDS011;1840;48.892;15.312;2023-08-31T01:11:07;7.13;;;4.80;;
3647;SDS011;1840;48.892;15.312;2023-08-31T01:13:41;7.73;;;4.63;;
3647;SDS011;1840;48.892;15.312;2023-08-31T01:16:17;8.63;;;5.47;;
3647;SDS011;1840;48.892;15.312;2023-08-31T01:18:48;6.83;;;5.30;;
3647;SDS011;1840;48.892;15.312;2023-08-31T01:21:17;7.97;;;5.27;;
3647;SDS011;1840;48.892;15.312;2023-08-31T01:23:52;9.33;;;5.63;;
3647;SDS011;1840;48.892;15.312;2023-08-31T01:26:21;5.90;;;4.47;;
3647;SDS011;1840;48.892;15.312;2023-08-31T01:28:50;6.10;;;4.60;;
3647;SDS011;1840;48.892;15.312;2023-08-31T01:31:19;6.53;;;4.73;;
3647;SDS011;1840;48.892;15.312;2023-08-31T01:33:47;7.03;;;4.50;;
3647;SDS011;1840;48.892;15.312;2023-08-31T01:36:17;5.80;;;4.87;;
3647;SDS011;1840;48.892;15.312;2023-08-31T01:38:57;12.27;;;5.27;;
3647;SDS011;1840;48.892;15.312;2023-08-31T01:41:30;9.30;;;5.73;;
3647;SDS011;1840;48.892;15.312;2023-08-31T01:44:02;6.83;;;5.07;;
3647;SDS011;1840;48.892;15.312;2023-08-31T01:46:33;6.80;;;5.27;;
3647;SDS011;1840;48.892;15.312;2023-08-31T01:49:01;8.00;;;4.93;;
3647;SDS011;1840;48.892;15.312;2023-08-31T01:51:32;7.70;;;5.50;;
3647;SDS011;1840;48.892;15.312;2023-08-31T01:54:02;8.20;;;5.17;;
3647;SDS011;1840;48.892;15.312;2023-08-31T01:56:31;6.50;;;5.10;;
3647;SDS011;1840;48.892;15.312;2023-08-31T01:58:59;7.93;;;5.63;;
3647;SDS011;1840;48.892;15.312;2023-08-31T02:01:27;7.10;;;5.73;;
3647;SDS011;1840;48.892;15.312;2023-08-31T02:03:55;5.20;;;4.40;;
3647;SDS011;1840;48.892;15.312;2023-08-31T02:06:23;5.80;;;4.77;;
3647;SDS011;1840;48.892;15.312;2023-08-31T02:08:51;6.80;;;4.60;;
3647;SDS011;1840;48.892;15.312;2023-08-31T02:11:21;7.70;;;6.07;;
3647;SDS011;1840;48.892;15.312;2023-08-31T02:13:49;10.33;;;4.97;;
3647;SDS011;1840;48.892;15.312;2023-08-31T02:16:19;10.50;;;5.93;;
3647;SDS011;1840;48.892;15.312;2023-08-31T02:18:48;7.47;;;4.97;;
3647;SDS011;1840;48.892;15.312;2023-08-31T02:21:16;9.63;;;6.30;;
3647;SDS011;1840;48.892;15.312;2023-08-31T02:23:46;8.60;;;5.23;;
3647;SDS011;1840;48.892;15.312;2023-08-31T02:26:14;8.60;;;5.60;;
3647;SDS011;1840;48.892;15.312;2023-08-31T02:28:43;7.17;;;4.83;;
3647;SDS011;1840;48.892;15.312;2023-08-31T02:31:13;7.37;;;5.60;;
3647;SDS011;1840;48.892;15.312;2023-08-31T02:33:41;11.90;;;5.37;;
3647;SDS011;1840;48.892;15.312;2023-08-31T02:36:09;5.87;;;4.70;;
3647;SDS011;1840;48.892;15.312;2023-08-31T02:38:38;6.23;;;3.90;;
3647;SDS011;1840;48.892;15.312;2023-08-31T02:41:06;7.93;;;5.30;;
3647;SDS011;1840;48.892;15.312;2023-08-31T02:43:34;6.30;;;4.47;;
3647;SDS011;1840;48.892;15.312;2023-08-31T02:46:04;7.33;;;5.00;;
3647;SDS011;1840;48.892;15.312;2023-08-31T02:48:32;10.03;;;5.83;;
3647;SDS011;1840;48.892;15.312;2023-08-31T02:51:00;10.03;;;5.57;;
3647;SDS011;1840;48.892;15.312;2023-08-31T02:53:29;7.30;;;5.30;;
3647;SDS011;1840;48.892;15.312;2023-08-31T02:55:57;10.47;;;5.50;;
3647;SDS011;1840;48.892;15.312;2023-08-31T02:58:25;6.33;;;4.87;;
3647;SDS011;1840;48.892;15.312;2023-08-31T03:00:53;14.73;;;5.27;;
3647;SDS011;1840;48.892;15.312;2023-08-31T03:03:23;4.90;;;4.40;;
3647;SDS011;1840;48.892;15.312;2023-08-31T03:05:54;6.40;;;4.30;;
3647;SDS011;1840;48.892;15.312;2023-08-31T03:08:22;6.93;;;5.50;;
3647;SDS011;1840;48.892;15.312;2023-08-31T03:10:50;13.27;;;5.60;;
3647;SDS011;1840;48.892;15.312;2023-08-31T03:13:19;6.63;;;5.10;;
3647;SDS011;1840;48.892;15.312;2023-08-31T03:15:47;12.17;;;5.60;;
3647;SDS011;1840;48.892;15.312;2023-08-31T03:18:15;12.07;;;6.07;;
3647;SDS011;1840;48.892;15.312;2023-08-31T03:20:45;11.67;;;7.23;;
3647;SDS011;1840;48.892;15.312;2023-08-31T03:23:13;9.00;;;5.30;;
3647;SDS011;1840;48.892;15.312;2023-08-31T03:25:41;10.03;;;5.67;;
3647;SDS011;1840;48.892;15.312;2023-08-31T03:28:09;6.37;;;5.13;;
3647;SDS011;1840;48.892;15.312;2023-08-31T03:30:37;9.50;;;6.53;;
3647;SDS011;1840;48.892;15.312;2023-08-31T03:33:06;10.50;;;7.70;;
3647;SDS011;1840;48.892;15.312;2023-08-31T03:35:35;7.83;;;6.33;;
3647;SDS011;1840;48.892;15.312;2023-08-31T03:38:04;8.30;;;6.47;;
3647;SDS011;1840;48.892;15.312;2023-08-31T03:40:32;14.23;;;6.20;;
3647;SDS011;1840;48.892;15.312;2023-08-31T03:43:00;7.50;;;6.07;;
3647;SDS011;1840;48.892;15.312;2023-08-31T03:45:28;10.70;;;6.23;;
3647;SDS011;1840;48.892;15.312;2023-08-31T03:47:56;7.43;;;5.93;;
3647;SDS011;1840;48.892;15.312;2023-08-31T03:50:24;9.53;;;6.70;;
3647;SDS011;1840;48.892;15.312;2023-08-31T03:52:52;7.83;;;5.70;;
3647;SDS011;1840;48.892;15.312;2023-08-31T03:55:22;9.30;;;5.90;;
3647;SDS011;1840;48.892;15.312;2023-08-31T03:57:50;11.47;;;7.10;;
3647;SDS011;1840;48.892;15.312;2023-08-31T04:00:18;8.50;;;5.80;;
3647;SDS011;1840;48.892;15.312;2023-08-31T04:02:46;7.03;;;5.60;;
3647;SDS011;1840;48.892;15.312;2023-08-31T04:05:14;9.50;;;6.90;;
3647;SDS011;1840;48.892;15.312;2023-08-31T04:07:43;7.30;;;6.27;;
3647;SDS011;1840;48.892;15.312;2023-08-31T04:10:11;9.87;;;6.10;;
3647;SDS011;1840;48.892;15.312;2023-08-31T04:12:40;8.67;;;6.53;;
3647;SDS011;1840;48.892;15.312;2023-08-31T04:15:13;13.43;;;6.40;;
3647;SDS011;1840;48.892;15.312;2023-08-31T04:17:41;9.20;;;7.43;;
3647;SDS011;1840;48.892;15.312;2023-08-31T04:20:09;8.67;;;6.33;;
3647;SDS011;1840;48.892;15.312;2023-08-31T04:22:38;8.50;;;6.23;;
3647;SDS011;1840;48.892;15.312;2023-08-31T04:25:06;9.97;;;6.50;;
3647;SDS011;1840;48.892;15.312;2023-08-31T04:27:35;9.67;;;6.80;;
3647;SDS011;1840;48.892;15.312;2023-08-31T04:30:07;11.30;;;7.53;;
3647;SDS011;1840;48.892;15.312;2023-08-31T04:32:35;11.37;;;6.70;;
3647;SDS011;1840;48.892;15.312;2023-08-31T04:35:04;8.23;;;6.87;;
3647;SDS011;1840;48.892;15.312;2023-08-31T04:37:33;9.93;;;6.50;;
3647;SDS011;1840;48.892;15.312;2023-08-31T04:40:01;8.53;;;5.93;;
3647;SDS011;1840;48.892;15.312;2023-08-31T04:42:30;10.20;;;7.70;;
3647;SDS011;1840;48.892;15.312;2023-08-31T04:44:58;8.57;;;7.10;;
3647;SDS011;1840;48.892;15.312;2023-08-31T04:47:27;13.70;;;8.47;;
3647;SDS011;1840;48.892;15.312;2023-08-31T04:49:56;17.53;;;8.60;;
3647;SDS011;1840;48.892;15.312;2023-08-31T04:52:25;10.63;;;8.70;;
3647;SDS011;1840;48.892;15.312;2023-08-31T04:54:53;12.87;;;8.73;;
3647;SDS011;1840;48.892;15.312;2023-08-31T04:57:21;11.50;;;8.97;;
3647;SDS011;1840;48.892;15.312;2023-08-31T04:59:50;10.13;;;7.17;;
3647;SDS011;1840;48.892;15.312;2023-08-31T05:02:18;11.23;;;8.10;;
3647;SDS011;1840;48.892;15.312;2023-08-31T05:04:47;12.53;;;8.20;;
3647;SDS011;1840;48.892;15.312;2023-08-31T05:07:15;11.43;;;8.87;;
3647;SDS011;1840;48.892;15.312;2023-08-31T05:09:43;11.43;;;8.03;;
3647;SDS011;1840;48.892;15.312;2023-08-31T05:12:11;9.77;;;7.40;;
3647;SDS011;1840;48.892;15.312;2023-08-31T05:14:40;13.87;;;7.50;;
3647;SDS011;1840;48.892;15.312;2023-08-31T05:17:08;9.40;;;8.27;;
3647;SDS011;1840;48.892;15.312;2023-08-31T05:19:36;13.07;;;8.40;;
3647;SDS011;1840;48.892;15.312;2023-08-31T05:22:05;9.43;;;8.20;;
3647;SDS011;1840;48.892;15.312;2023-08-31T05:24:33;9.97;;;7.70;;
3647;SDS011;1840;48.892;15.312;2023-08-31T05:27:01;15.03;;;8.97;;
3647;SDS011;1840;48.892;15.312;2023-08-31T05:29:30;13.40;;;7.00;;
3647;SDS011;1840;48.892;15.312;2023-08-31T05:31:58;12.87;;;8.60;;
3647;SDS011;1840;48.892;15.312;2023-08-31T05:34:26;9.80;;;6.90;;
3647;SDS011;1840;48.892;15.312;2023-08-31T05:36:54;12.60;;;8.47;;
3647;SDS011;1840;48.892;15.312;2023-08-31T05:39:23;12.20;;;7.80;;
3647;SDS011;1840;48.892;15.312;2023-08-31T05:41:52;10.67;;;8.10;;
3647;SDS011;1840;48.892;15.312;2023-08-31T05:44:20;12.83;;;8.63;;
3647;SDS011;1840;48.892;15.312;2023-08-31T05:46:49;7.03;;;6.33;;
3647;SDS011;1840;48.892;15.312;2023-08-31T05:49:17;14.70;;;8.50;;
3647;SDS011;1840;48.892;15.312;2023-08-31T05:51:45;16.97;;;7.67;;
3647;SDS011;1840;48.892;15.312;2023-08-31T05:54:13;8.70;;;7.07;;
3647;SDS011;1840;48.892;15.312;2023-08-31T05:56:43;8.70;;;7.00;;
3647;SDS011;1840;48.892;15.312;2023-08-31T05:59:11;9.13;;;7.00;;
3647;SDS011;1840;48.892;15.312;2023-08-31T06:01:39;9.60;;;7.47;;
3647;SDS011;1840;48.892;15.312;2023-08-31T06:04:08;7.73;;;5.40;;
3647;SDS011;1840;48.892;15.312;2023-08-31T06:06:36;10.47;;;7.60;;
3647;SDS011;1840;48.892;15.312;2023-08-31T06:09:04;9.53;;;6.10;;
3647;SDS011;1840;48.892;15.312;2023-08-31T06:11:33;7.50;;;6.07;;
3647;SDS011;1840;48.892;15.312;2023-08-31T06:14:02;9.10;;;6.20;;
3647;SDS011;1840;48.892;15.312;2023-08-31T06:16:30;7.60;;;5.90;;
3647;SDS011;1840;48.892;15.312;2023-08-31T06:18:58;7.27;;;5.67;;
3647;SDS011;1840;48.892;15.312;2023-08-31T06:21:26;8.40;;;5.20;;
3647;SDS011;1840;48.892;15.312;2023-08-31T06:23:55;7.50;;;5.27;;
3647;SDS011;1840;48.892;15.312;2023-08-31T06:26:23;7.00;;;5.47;;
3647;SDS011;1840;48.892;15.312;2023-08-31T06:28:51;15.10;;;5.80;;
3647;SDS011;1840;48.892;15.312;2023-08-31T06:31:20;10.40;;;5.20;;
3647;SDS011;1840;48.892;15.312;2023-08-31T06:33:49;8.30;;;5.10;;
3647;SDS011;1840;48.892;15.312;2023-08-31T06:36:17;9.10;;;5.13;;
3647;SDS011;1840;48.892;15.312;2023-08-31T06:38:45;8.17;;;5.50;;
3647;SDS011;1840;48.892;15.312;2023-08-31T06:41:13;8.13;;;5.33;;
3647;SDS011;1840;48.892;15.312;2023-08-31T06:43:41;11.13;;;4.93;;
3647;SDS011;1840;48.892;15.312;2023-08-31T06:46:10;6.60;;;4.83;;
3647;SDS011;1840;48.892;15.312;2023-08-31T06:48:51;25.03;;;5.60;;
3647;SDS011;1840;48.892;15.312;2023-08-31T06:51:20;17.93;;;4.83;;
3647;SDS011;1840;48.892;15.312;2023-08-31T06:53:50;6.10;;;4.90;;
3647;SDS011;1840;48.892;15.312;2023-08-31T06:56:18;10.30;;;4.50;;
3647;SDS011;1840;48.892;15.312;2023-08-31T06:58:46;5.00;;;4.20;;
3647;SDS011;1840;48.892;15.312;2023-08-31T07:01:14;4.67;;;3.53;;
3647;SDS011;1840;48.892;15.312;2023-08-31T07:03:42;5.23;;;3.40;;
3647;SDS011;1840;48.892;15.312;2023-08-31T07:06:12;5.17;;;3.97;;
3647;SDS011;1840;48.892;15.312;2023-08-31T07:08:40;8.90;;;3.97;;
3647;SDS011;1840;48.892;15.312;2023-08-31T07:11:11;5.13;;;3.93;;
3647;SDS011;1840;48.892;15.312;2023-08-31T07:13:39;5.00;;;3.27;;
3647;SDS011;1840;48.892;15.312;2023-08-31T07:16:07;6.17;;;3.50;;
3647;SDS011;1840;48.892;15.312;2023-08-31T07:18:36;5.50;;;3.80;;
3647;SDS011;1840;48.892;15.312;2023-08-31T07:21:04;4.40;;;2.90;;
3647;SDS011;1840;48.892;15.312;2023-08-31T07:23:34;9.87;;;4.07;;
3647;SDS011;1840;48.892;15.312;2023-08-31T07:26:02;8.53;;;3.40;;
3647;SDS011;1840;48.892;15.312;2023-08-31T07:28:31;6.20;;;2.77;;
3647;SDS011;1840;48.892;15.312;2023-08-31T07:31:02;6.87;;;2.63;;
3647;SDS011;1840;48.892;15.312;2023-08-31T07:33:31;3.53;;;2.70;;
3647;SDS011;1840;48.892;15.312;2023-08-31T07:36:01;9.23;;;3.00;;
3647;SDS011;1840;48.892;15.312;2023-08-31T07:38:31;5.40;;;3.00;;
3647;SDS011;1840;48.892;15.312;2023-08-31T07:41:01;4.80;;;2.90;;
3647;SDS011;1840;48.892;15.312;2023-08-31T07:43:30;4.20;;;2.90;;
3647;SDS011;1840;48.892;15.312;2023-08-31T07:45:58;4.57;;;3.10;;
3647;SDS011;1840;48.892;15.312;2023-08-31T07:48:26;4.50;;;2.90;;
3647;SDS011;1840;48.892;15.312;2023-08-31T07:50:54;5.33;;;2.57;;
3647;SDS011;1840;48.892;15.312;2023-08-31T07:53:23;10.60;;;3.73;;
3647;SDS011;1840;48.892;15.312;2023-08-31T07:55:54;4.80;;;2.50;;
3647;SDS011;1840;48.892;15.312;2023-08-31T07:58:23;3.20;;;2.10;;
3647;SDS011;1840;48.892;15.312;2023-08-31T08:00:52;3.77;;;1.90;;
3647;SDS011;1840;48.892;15.312;2023-08-31T08:03:21;4.70;;;2.17;;
3647;SDS011;1840;48.892;15.312;2023-08-31T08:05:50;5.70;;;2.17;;
3647;SDS011;1840;48.892;15.312;2023-08-31T08:08:18;4.67;;;2.07;;
3647;SDS011;1840;48.892;15.312;2023-08-31T08:10:46;3.83;;;2.20;;
3647;SDS011;1840;48.892;15.312;2023-08-31T08:13:16;5.23;;;2.13;;
3647;SDS011;1840;48.892;15.312;2023-08-31T08:15:44;10.37;;;2.00;;
3647;SDS011;1840;48.892;15.312;2023-08-31T08:18:13;4.50;;;2.20;;
3647;SDS011;1840;48.892;15.312;2023-08-31T08:20:41;16.53;;;2.73;;
3647;SDS011;1840;48.892;15.312;2023-08-31T08:23:09;6.20;;;2.90;;
3647;SDS011;1840;48.892;15.312;2023-08-31T08:25:37;7.20;;;2.10;;
3647;SDS011;1840;48.892;15.312;2023-08-31T08:28:05;3.57;;;2.30;;
3647;SDS011;1840;48.892;15.312;2023-08-31T08:30:35;4.03;;;2.17;;
3647;SDS011;1840;48.892;15.312;2023-08-31T08:33:03;4.70;;;2.47;;
3647;SDS011;1840;48.892;15.312;2023-08-31T08:35:32;4.30;;;2.13;;
3647;SDS011;1840;48.892;15.312;2023-08-31T08:38:00;4.07;;;2.23;;
3647;SDS011;1840;48.892;15.312;2023-08-31T08:40:28;4.37;;;1.97;;
3647;SDS011;1840;48.892;15.312;2023-08-31T08:42:58;5.17;;;2.30;;
3647;SDS011;1840;48.892;15.312;2023-08-31T08:45:30;5.67;;;2.10;;
3647;SDS011;1840;48.892;15.312;2023-08-31T08:48:05;3.70;;;1.70;;
3647;SDS011;1840;48.892;15.312;2023-08-31T08:50:34;4.00;;;2.10;;
3647;SDS011;1840;48.892;15.312;2023-08-31T08:53:04;4.30;;;2.07;;
3647;SDS011;1840;48.892;15.312;2023-08-31T08:55:33;3.70;;;1.97;;
3647;SDS011;1840;48.892;15.312;2023-08-31T08:58:01;3.20;;;1.90;;
3647;SDS011;1840;48.892;15.312;2023-08-31T09:00:30;3.33;;;1.50;;
3647;SDS011;1840;48.892;15.312;2023-08-31T09:03:01;3.20;;;1.67;;
3647;SDS011;1840;48.892;15.312;2023-08-31T09:05:33;4.00;;;1.80;;
3647;SDS011;1840;48.892;15.312;2023-08-31T09:08:01;3.33;;;1.83;;
3647;SDS011;1840;48.892;15.312;2023-08-31T09:10:33;3.80;;;1.50;;
3647;SDS011;1840;48.892;15.312;2023-08-31T09:13:04;3.33;;;1.80;;
3647;SDS011;1840;48.892;15.312;2023-08-31T09:15:41;4.60;;;2.30;;
3647;SDS011;1840;48.892;15.312;2023-08-31T09:18:16;4.40;;;1.80;;
3647;SDS011;1840;48.892;15.312;2023-08-31T09:20:50;3.60;;;1.87;;
3647;SDS011;1840;48.892;15.312;2023-08-31T09:23:19;15.17;;;2.70;;
3647;SDS011;1840;48.892;15.312;2023-08-31T09:25:48;4.53;;;1.73;;
3647;SDS011;1840;48.892;15.312;2023-08-31T09:28:20;3.73;;;1.80;;
3647;SDS011;1840;48.892;15.312;2023-08-31T09:30:50;4.10;;;1.50;;
3647;SDS011;1840;48.892;15.312;2023-08-31T09:33:21;4.57;;;2.10;;
3647;SDS011;1840;48.892;15.312;2023-08-31T09:35:49;6.80;;;2.40;;
3647;SDS011;1840;48.892;15.312;2023-08-31T09:38:19;2.97;;;1.80;;
3647;SDS011;1840;48.892;15.312;2023-08-31T09:40:47;4.40;;;2.10;;
3647;SDS011;1840;48.892;15.312;2023-08-31T09:43:19;6.83;;;2.40;;
3647;SDS011;1840;48.892;15.312;2023-08-31T09:45:48;4.20;;;2.07;;
3647;SDS011;1840;48.892;15.312;2023-08-31T09:48:17;3.43;;;1.80;;
3647;SDS011;1840;48.892;15.312;2023-08-31T09:50:48;3.67;;;1.70;;
3647;SDS011;1840;48.892;15.312;2023-08-31T09:53:19;4.33;;;2.20;;
3647;SDS011;1840;48.892;15.312;2023-08-31T09:55:48;5.43;;;2.10;;
3647;SDS011;1840;48.892;15.312;2023-08-31T09:58:18;4.47;;;2.13;;
3647;SDS011;1840;48.892;15.312;2023-08-31T10:00:48;4.00;;;2.03;;
3647;SDS011;1840;48.892;15.312;2023-08-31T10:03:18;4.50;;;2.20;;
3647;SDS011;1840;48.892;15.312;2023-08-31T10:05:49;5.90;;;2.63;;
3647;SDS011;1840;48.892;15.312;2023-08-31T10:08:17;6.03;;;2.30;;
3647;SDS011;1840;48.892;15.312;2023-08-31T10:10:46;4.03;;;1.60;;
3647;SDS011;1840;48.892;15.312;2023-08-31T10:13:14;3.80;;;2.33;;
3647;SDS011;1840;48.892;15.312;2023-08-31T10:15:44;4.13;;;2.20;;
3647;SDS011;1840;48.892;15.312;2023-08-31T10:18:13;5.13;;;2.53;;
3647;SDS011;1840;48.892;15.312;2023-08-31T10:20:42;6.43;;;2.40;;
3647;SDS011;1840;48.892;15.312;2023-08-31T10:23:13;5.47;;;2.57;;
3647;SDS011;1840;48.892;15.312;2023-08-31T10:25:59;5.03;;;2.23;;
3647;SDS011;1840;48.892;15.312;2023-08-31T10:28:27;5.03;;;2.10;;
3647;SDS011;1840;48.892;15.312;2023-08-31T10:31:02;8.03;;;2.40;;
3647;SDS011;1840;48.892;15.312;2023-08-31T10:33:32;4.80;;;2.50;;
3647;SDS011;1840;48.892;15.312;2023-08-31T10:36:00;4.53;;;2.20;;
3647;SDS011;1840;48.892;15.312;2023-08-31T10:38:31;4.27;;;2.00;;
3647;SDS011;1840;48.892;15.312;2023-08-31T10:41:16;6.87;;;2.10;;
3647;SDS011;1840;48.892;15.312;2023-08-31T10:43:49;5.00;;;2.50;;
3647;SDS011;1840;48.892;15.312;2023-08-31T10:46:28;4.53;;;2.30;;
3647;SDS011;1840;48.892;15.312;2023-08-31T10:48:59;4.27;;;2.03;;
3647;SDS011;1840;48.892;15.312;2023-08-31T10:51:29;3.77;;;2.07;;
3647;SDS011;1840;48.892;15.312;2023-08-31T10:59:45;4.67;;;2.37;;
3647;SDS011;1840;48.892;15.312;2023-08-31T11:02:31;5.53;;;2.33;;
3647;SDS011;1840;48.892;15.312;2023-08-31T11:05:04;6.07;;;2.80;;
3647;SDS011;1840;48.892;15.312;2023-08-31T11:07:34;4.30;;;2.43;;
3647;SDS011;1840;48.892;15.312;2023-08-31T11:10:08;14.53;;;2.73;;
3647;SDS011;1840;48.892;15.312;2023-08-31T11:12:38;8.07;;;2.80;;
3647;SDS011;1840;48.892;15.312;2023-08-31T11:15:07;5.30;;;2.57;;
3647;SDS011;1840;48.892;15.312;2023-08-31T11:17:39;4.77;;;2.23;;
3647;SDS011;1840;48.892;15.312;2023-08-31T11:20:08;5.23;;;2.37;;
3647;SDS011;1840;48.892;15.312;2023-08-31T11:22:40;5.13;;;2.23;;
3647;SDS011;1840;48.892;15.312;2023-08-31T11:25:11;7.07;;;2.30;;
3647;SDS011;1840;48.892;15.312;2023-08-31T11:27:41;6.17;;;2.60;;
3647;SDS011;1840;48.892;15.312;2023-08-31T11:30:13;7.03;;;2.53;;
3647;SDS011;1840;48.892;15.312;2023-08-31T11:32:48;6.57;;;2.83;;
3647;SDS011;1840;48.892;15.312;2023-08-31T11:35:18;8.00;;;2.40;;
3647;SDS011;1840;48.892;15.312;2023-08-31T11:37:49;7.73;;;2.77;;
3647;SDS011;1840;48.892;15.312;2023-08-31T11:40:19;6.23;;;2.40;;
3647;SDS011;1840;48.892;15.312;2023-08-31T11:42:48;4.87;;;2.20;;
3647;SDS011;1840;48.892;15.312;2023-08-31T11:45:16;5.30;;;2.47;;
3647;SDS011;1840;48.892;15.312;2023-08-31T11:47:45;6.23;;;2.03;;
3647;SDS011;1840;48.892;15.312;2023-08-31T11:50:15;4.73;;;2.00;;
3647;SDS011;1840;48.892;15.312;2023-08-31T11:52:44;4.73;;;1.93;;
3647;SDS011;1840;48.892;15.312;2023-08-31T11:55:12;4.73;;;2.13;;
3647;SDS011;1840;48.892;15.312;2023-08-31T11:57:48;5.80;;;2.40;;
3647;SDS011;1840;48.892;15.312;2023-08-31T12:00:17;5.93;;;2.00;;
3647;SDS011;1840;48.892;15.312;2023-08-31T12:02:56;6.40;;;2.80;;
3647;SDS011;1840;48.892;15.312;2023-08-31T12:05:25;4.83;;;2.00;;
3647;SDS011;1840;48.892;15.312;2023-08-31T12:07:54;4.60;;;2.23;;
3647;SDS011;1840;48.892;15.312;2023-08-31T12:10:23;5.70;;;2.50;;
3647;SDS011;1840;48.892;15.312;2023-08-31T12:12:52;6.07;;;2.30;;
3647;SDS011;1840;48.892;15.312;2023-08-31T12:15:22;4.23;;;1.93;;
3647;SDS011;1840;48.892;15.312;2023-08-31T12:17:50;5.97;;;2.07;;
3647;SDS011;1840;48.892;15.312;2023-08-31T12:20:25;6.00;;;2.27;;
3647;SDS011;1840;48.892;15.312;2023-08-31T12:22:54;6.30;;;2.07;;
3647;SDS011;1840;48.892;15.312;2023-08-31T12:25:22;7.03;;;2.33;;
3647;SDS011;1840;48.892;15.312;2023-08-31T12:27:50;5.37;;;2.10;;
3647;SDS011;1840;48.892;15.312;2023-08-31T12:30:18;7.20;;;2.47;;
3647;SDS011;1840;48.892;15.312;2023-08-31T12:32:47;6.20;;;2.90;;
3647;SDS011;1840;48.892;15.312;2023-08-31T12:35:15;6.17;;;2.30;;
3647;SDS011;1840;48.892;15.312;2023-08-31T12:37:44;4.17;;;2.20;;
3647;SDS011;1840;48.892;15.312;2023-08-31T12:40:12;6.27;;;2.40;;
3647;SDS011;1840;48.892;15.312;2023-08-31T12:42:41;5.37;;;2.23;;
3647;SDS011;1840;48.892;15.312;2023-08-31T12:45:09;7.43;;;2.37;;
3647;SDS011;1840;48.892;15.312;2023-08-31T12:47:37;5.70;;;2.30;;
3647;SDS011;1840;48.892;15.312;2023-08-31T12:50:06;5.60;;;2.10;;
3647;SDS011;1840;48.892;15.312;2023-08-31T12:52:34;5.67;;;2.60;;
3647;SDS011;1840;48.892;15.312;2023-08-31T12:55:12;6.23;;;2.10;;
3647;SDS011;1840;48.892;15.312;2023-08-31T12:57:40;7.10;;;2.60;;
3647;SDS011;1840;48.892;15.312;2023-08-31T13:00:09;6.03;;;2.40;;
3647;SDS011;1840;48.892;15.312;2023-08-31T13:02:39;7.13;;;2.27;;
3647;SDS011;1840;48.892;15.312;2023-08-31T13:05:07;7.43;;;2.20;;
3647;SDS011;1840;48.892;15.312;2023-08-31T13:07:59;5.97;;;2.10;;
3647;SDS011;1840;48.892;15.312;2023-08-31T13:10:29;6.70;;;2.47;;
3647;SDS011;1840;48.892;15.312;2023-08-31T13:12:57;5.73;;;2.53;;
3647;SDS011;1840;48.892;15.312;2023-08-31T13:15:25;5.57;;;2.60;;
3647;SDS011;1840;48.892;15.312;2023-08-31T13:17:53;7.33;;;2.40;;
3647;SDS011;1840;48.892;15.312;2023-08-31T13:20:22;5.97;;;2.07;;
3647;SDS011;1840;48.892;15.312;2023-08-31T13:22:50;8.57;;;2.57;;
3647;SDS011;1840;48.892;15.312;2023-08-31T13:25:18;4.50;;;2.17;;
3647;SDS011;1840;48.892;15.312;2023-08-31T13:27:47;4.97;;;2.03;;
3647;SDS011;1840;48.892;15.312;2023-08-31T13:30:15;7.07;;;2.37;;
3647;SDS011;1840;48.892;15.312;2023-08-31T13:32:43;6.43;;;2.70;;
3647;SDS011;1840;48.892;15.312;2023-08-31T13:35:11;6.60;;;2.30;;
3647;SDS011;1840;48.892;15.312;2023-08-31T13:37:43;5.27;;;2.20;;
3647;SDS011;1840;48.892;15.312;2023-08-31T13:40:11;6.60;;;2.57;;
3647;SDS011;1840;48.892;15.312;2023-08-31T13:42:48;5.00;;;2.20;;
3647;SDS011;1840;48.892;15.312;2023-08-31T13:45:20;6.50;;;2.57;;
3647;SDS011;1840;48.892;15.312;2023-08-31T13:47:49;4.90;;;2.20;;
3647;SDS011;1840;48.892;15.312;2023-08-31T13:50:17;7.17;;;2.87;;
3647;SDS011;1840;48.892;15.312;2023-08-31T13:52:45;8.10;;;2.00;;
3647;SDS011;1840;48.892;15.312;2023-08-31T13:55:13;6.90;;;2.67;;
3647;SDS011;1840;48.892;15.312;2023-08-31T13:57:41;4.53;;;2.00;;
3647;SDS011;1840;48.892;15.312;2023-08-31T14:00:12;6.00;;;2.50;;
3647;SDS011;1840;48.892;15.312;2023-08-31T14:02:41;4.80;;;2.30;;
3647;SDS011;1840;48.892;15.312;2023-08-31T14:05:11;5.27;;;2.53;;
3647;SDS011;1840;48.892;15.312;2023-08-31T14:07:41;5.30;;;2.70;;
3647;SDS011;1840;48.892;15.312;2023-08-31T14:10:09;7.57;;;2.20;;
3647;SDS011;1840;48.892;15.312;2023-08-31T14:12:37;7.57;;;2.90;;
3647;SDS011;1840;48.892;15.312;2023-08-31T14:15:05;8.60;;;2.50;;
3647;SDS011;1840;48.892;15.312;2023-08-31T14:17:35;8.43;;;2.37;;
3647;SDS011;1840;48.892;15.312;2023-08-31T14:20:04;7.30;;;2.50;;
3647;SDS011;1840;48.892;15.312;2023-08-31T14:22:35;6.07;;;2.60;;
3647;SDS011;1840;48.892;15.312;2023-08-31T14:25:04;5.00;;;2.07;;
3647;SDS011;1840;48.892;15.312;2023-08-31T14:27:32;3.70;;;1.93;;
3647;SDS011;1840;48.892;15.312;2023-08-31T14:30:00;6.43;;;2.60;;
3647;SDS011;1840;48.892;15.312;2023-08-31T14:32:29;6.30;;;2.00;;
3647;SDS011;1840;48.892;15.312;2023-08-31T14:34:58;6.67;;;2.50;;
3647;SDS011;1840;48.892;15.312;2023-08-31T14:37:26;6.03;;;2.30;;
3647;SDS011;1840;48.892;15.312;2023-08-31T14:39:54;6.10;;;2.53;;
3647;SDS011;1840;48.892;15.312;2023-08-31T14:42:22;10.20;;;2.13;;
3647;SDS011;1840;48.892;15.312;2023-08-31T14:44:50;8.23;;;2.87;;
3647;SDS011;1840;48.892;15.312;2023-08-31T14:47:18;5.90;;;2.30;;
3647;SDS011;1840;48.892;15.312;2023-08-31T14:49:46;4.40;;;2.10;;
3647;SDS011;1840;48.892;15.312;2023-08-31T14:52:16;79.37;;;7.13;;
3647;SDS011;1840;48.892;15.312;2023-08-31T14:54:44;5.90;;;2.63;;
3647;SDS011;1840;48.892;15.312;2023-08-31T14:57:12;5.03;;;2.40;;
3647;SDS011;1840;48.892;15.312;2023-08-31T14:59:40;8.20;;;2.20;;
3647;SDS011;1840;48.892;15.312;2023-08-31T15:02:08;4.90;;;2.00;;
3647;SDS011;1840;48.892;15.312;2023-08-31T15:04:36;4.77;;;2.40;;
3647;SDS011;1840;48.892;15.312;2023-08-31T15:07:04;4.33;;;2.13;;
3647;SDS011;1840;48.892;15.312;2023-08-31T15:09:34;7.17;;;2.70;;
3647;SDS011;1840;48.892;15.312;2023-08-31T15:12:02;7.30;;;2.40;;
3647;SDS011;1840;48.892;15.312;2023-08-31T15:14:32;8.60;;;2.50;;
3647;SDS011;1840;48.892;15.312;2023-08-31T15:17:00;4.60;;;2.20;;
3647;SDS011;1840;48.892;15.312;2023-08-31T15:19:28;11.07;;;2.80;;